Home > Products > Valid Products > MTR

000
SAUS43 KEAX 291100 COR
MTRCDJ
METAR KCDJ 291052Z AUTO 00000KT 14/13 A3017 RMK AO1 SLP209 T01390128





000
SAUS43 KEAX 291000 COR
MTRCDJ
METAR KCDJ 290952Z AUTO 00000KT 15/13 A3017 RMK AO1 SLP209 T01500133





000
SAUS43 KEAX 290856
MTRCDJ
METAR KCDJ 290852Z AUTO 00000KT 16/14 A3017 RMK AO1 SLP207 T01610144
58001





000
SAUS43 KEAX 290800 COR
MTRCDJ
METAR KCDJ 290752Z AUTO 00000KT 17/15 A3018 RMK AO1 SLP209 T01670150





000
SAUS43 KEAX 290659 COR
MTRCDJ
METAR KCDJ 290652Z AUTO 00000KT 17/15 A3017 RMK AO1 SLP208 T01720150





000
SAUS43 KEAX 290553
MTRCDJ
METAR KCDJ 290552Z AUTO 00000KT 18/16 A3017 RMK AO1 SLP208 T01830161
10261 20178 402720172 53003





000
SAUS43 KEAX 290454
MTRCDJ
METAR KCDJ 290452Z AUTO 00000KT 18/16 A3017 RMK AO1 SLP208 T01830156





000
SAUS43 KEAX 290353
MTRCDJ
METAR KCDJ 290352Z AUTO 00000KT 20/16 A3016 RMK AO1 SLP205 T02000161





000
SAUS43 KEAX 290253
MTRCDJ
METAR KCDJ 290252Z AUTO 00000KT 19/16 A3016 RMK AO1 SLP206 T01940156
53005





000
SAUS43 KEAX 290153
MTRCDJ
METAR KCDJ 290152Z AUTO 00000KT 20/16 A3016 RMK AO1 SLP205 T02000156





000
SAUS43 KEAX 290053
MTRCDJ
METAR KCDJ 290052Z AUTO 00000KT 24/14 A3015 RMK AO1 SLP200 T02390144





000
SAUS43 KEAX 282353
MTRCDJ
METAR KCDJ 282352Z AUTO 35004KT 26/13 A3015 RMK AO1 SLP199 T02610128
10272 20244 58013





000
SAUS43 KEAX 282253
MTRCDJ
METAR KCDJ 282252Z AUTO 02006KT 26/13 A3016 RMK AO1 SLP204 T02560128





000
SAUS43 KEAX 282153
MTRCDJ
METAR KCDJ 282152Z AUTO VRB05KT 27/13 A3017 RMK AO1 SLP208 T02670133





000
SAUS43 KEAX 282053
MTRCDJ
METAR KCDJ 282052Z AUTO 02008KT 27/13 A3019 RMK AO1 SLP211 T02670133
58009





000
SAUS43 KEAX 281953
MTRCDJ
METAR KCDJ 281952Z AUTO 01007KT 27/14 A3020 RMK AO1 SLP217 T02670139





000
SAUS43 KEAX 281853
MTRCDJ
METAR KCDJ 281852Z AUTO 34007KT 300V020 26/15 A3021 RMK AO1 SLP218
T02610150





000
SAUS43 KEAX 281753
MTRCDJ
METAR KCDJ 281752Z AUTO 36008KT 25/15 A3021 RMK AO1 SLP222 T02500150
10250 20172 50004





000
SAUS43 KEAX 281653
MTRCDJ
METAR KCDJ 281652Z AUTO VRB06KT 24/15 A3022 RMK AO1 SLP224 T02390150





000
SAUS43 KEAX 281553
MTRCDJ
METAR KCDJ 281552Z AUTO 35004KT 23/15 A3021 RMK AO1 SLP222 T02280150





000
SAUS43 KEAX 281453
MTRCDJ
METAR KCDJ 281452Z AUTO 36007KT 21/15 A3020 RMK AO1 SLP218 T02110150
51011





000
SAUS43 KEAX 281353
MTRCDJ
METAR KCDJ 281352Z AUTO VRB04KT 19/15 A3020 RMK AO1 SLP217 T01940150





000
SAUS43 KEAX 281253
MTRCDJ
METAR KCDJ 281252Z AUTO VRB05KT 18/14 A3019 RMK AO1 SLP213 T01830144





000
SAUS43 KEAX 281153
MTRCDJ
METAR KCDJ 281152Z AUTO VRB04KT 17/14 A3017 RMK AO1 SLP205 T01720139
10194 20172 53013





000
SAUS43 KEAX 281053
MTRCDJ
METAR KCDJ 281052Z AUTO VRB04KT 17/14 A3015 RMK AO1 SLP199 T01720139





000
SAUS43 KEAX 280953
MTRCDJ
METAR KCDJ 280952Z AUTO VRB03KT 18/14 A3014 RMK AO1 SLP196 T01780139





000
SAUS43 KEAX 280853
MTRCDJ
METAR KCDJ 280852Z AUTO VRB04KT 18/13 A3013 RMK AO1 SLP190 T01830133
50000





000
SAUS43 KEAX 280753
MTRCDJ
METAR KCDJ 280752Z AUTO 00000KT 18/13 A3013 RMK AO1 SLP191 T01830133





000
SAUS43 KEAX 280653
MTRCDJ
METAR KCDJ 280652Z AUTO VRB03KT 19/13 A3013 RMK AO1 SLP190 T01940133





000
SAUS43 KEAX 280553
MTRCDJ
METAR KCDJ 280552Z AUTO 00000KT 19/13 A3013 RMK AO1 SLP189 T01940133
10278 20194 403000194 51009





000
SAUS43 KEAX 280453
MTRCDJ
METAR KCDJ 280452Z AUTO VRB03KT 21/13 A3012 RMK AO1 SLP186 T02060133





000
SAUS43 KEAX 280353
MTRCDJ
METAR KCDJ 280352Z AUTO VRB03KT 21/13 A3011 RMK AO1 SLP184 T02060133





000
SAUS43 KEAX 280253
MTRCDJ
METAR KCDJ 280252Z AUTO 34003KT 22/14 A3010 RMK AO1 SLP180 T02220139
53018





000
SAUS43 KEAX 280153
MTRCDJ
METAR KCDJ 280152Z AUTO 35004KT 24/14 A3007 RMK AO1 SLP170 T02390144





000
SAUS43 KEAX 280053
MTRCDJ
METAR KCDJ 280052Z AUTO VRB04KT 26/14 A3006 RMK AO1 SLP167 T02610139





000
SAUS43 KEAX 272353
MTRCDJ
METAR KCDJ 272352Z AUTO VRB06KT 28/14 A3005 RMK AO1 SLP160 T02780144
10300 20267 53014





000
SAUS43 KEAX 272253
MTRCDJ
METAR KCDJ 272252Z AUTO 34007G18KT 29/13 A3003 RMK AO1 SLP155
T02890133





000
SAUS43 KEAX 272153
MTRCDJ
METAR KCDJ 272152Z AUTO 31011G17KT 29/14 A3002 RMK AO1 SLP150
T02890139





000
SAUS43 KEAX 272053
MTRCDJ
METAR KCDJ 272052Z AUTO 32011G22KT 30/14 A3000 RMK AO1 SLP145
T03000144 56003





000
SAUS43 KEAX 271953
MTRCDJ
METAR KCDJ 271952Z AUTO 31012G24KT 280V350 30/14 A3001 RMK AO1
SLP146 T03000139





000
SAUS43 KEAX 271853
MTRCDJ
METAR KCDJ 271852Z AUTO 30009G22KT 250V330 30/14 A3000 RMK AO1
SLP145 T03000139





000
SAUS43 KEAX 271753
MTRCDJ
METAR KCDJ 271752Z AUTO VRB05KT 29/14 A3001 RMK AO1 SLP149 T02940139
10294 20233 50005





000
SAUS43 KEAX 271653
MTRCDJ
METAR KCDJ 271652Z AUTO 33007G15KT 290V010 29/14 A3002 RMK AO1
SLP150 T02890144





000
SAUS43 KEAX 271553
MTRCDJ
METAR KCDJ 271552Z AUTO VRB06KT 28/16 A3002 RMK AO1 SLP150 T02830161





000
SAUS43 KEAX 271453
MTRCDJ
METAR KCDJ 271452Z AUTO VRB06KT 28/17 A3000 RMK AO1 SLP144 T02780172
51018





000
SAUS43 KEAX 271353
MTRCDJ
METAR KCDJ 271352Z AUTO VRB04KT 27/21 A2999 RMK AO1 SLP142 T02670211





000
SAUS43 KEAX 271253
MTRCDJ
METAR KCDJ 271252Z AUTO 33003KT 25/22 A2997 RMK AO1 SLP134 T02500222





000
SAUS43 KEAX 271153
MTRCDJ
METAR KCDJ 271152Z AUTO 31004KT 23/22 A2995 RMK AO1 SLP127 T02330217
10250 20228 51018





000
SAUS43 KEAX 271053
MTRCDJ
METAR KCDJ 271052Z AUTO 00000KT 23/22 A2994 RMK AO1 SLP123 T02330217





000
SAUS43 KEAX 270953
MTRCDJ
METAR KCDJ 270952Z AUTO VRB03KT 24/23 A2992 RMK AO1 SLP118 T02390228





000
SAUS43 KEAX 270853
MTRCDJ
METAR KCDJ 270852Z AUTO 00000KT 23/22 A2989 RMK AO1 SLP109 T02330222
53010





000
SAUS43 KEAX 270753
MTRCDJ
METAR KCDJ 270752Z AUTO 00000KT 23/22 A2988 RMK AO1 SLP106 T02330222





000
SAUS43 KEAX 270653
MTRCDJ
METAR KCDJ 270652Z AUTO 00000KT 24/23 A2987 RMK AO1 SLP101 T02440228





000
SAUS43 KEAX 270553
MTRCDJ
METAR KCDJ 270552Z AUTO 00000KT 25/23 A2986 RMK AO1 SLP099 T02500233
10294 20244 403110228 53005





000
SAUS43 KEAX 270453
MTRCDJ
METAR KCDJ 270452Z AUTO 00000KT 25/23 A2985 RMK AO1 SLP093 T02500233





000
SAUS43 KEAX 270353
MTRCDJ
METAR KCDJ 270352Z AUTO 00000KT 25/23 A2985 RMK AO1 SLP095 T02500233





000
SAUS43 KEAX 270253
MTRCDJ
METAR KCDJ 270252Z AUTO 00000KT 26/24 A2985 RMK AO1 SLP093 T02560239
53013





000
SAUS43 KEAX 270153
MTRCDJ
METAR KCDJ 270152Z AUTO 00000KT 26/24 A2984 RMK AO1 SLP088 T02610239





000
SAUS43 KEAX 270053
MTRCDJ
METAR KCDJ 270052Z AUTO 17003KT 29/24 A2981 RMK AO1 SLP078 T02940239





000
SAUS43 KEAX 262353
MTRCDJ
METAR KCDJ 262352Z AUTO 17004KT 29/23 A2981 RMK AO1 SLP079 T02890233
10311 20261 58009





000
SAUS43 KEAX 262253
MTRCDJ
METAR KCDJ 262252Z AUTO 00000KT 30/24 A2984 RMK AO1 SLP091 T03000239





000
SAUS43 KEAX 262153
MTRCDJ
METAR KCDJ 262152Z AUTO 00000KT 29/23 A2985 RMK AO1 SLP095 T02890233





000
SAUS43 KEAX 262054
MTRCDJ
METAR KCDJ 262052Z AUTO 17005KT 28/23 A2984 RMK AO1 SLP090 T02780233
58005





000
SAUS43 KEAX 261953
MTRCDJ
METAR KCDJ 261952Z AUTO VRB03KT 27/23 A2987 RMK AO1 SLP100 T02670233





000
SAUS43 KEAX 261853
MTRCDJ
METAR KCDJ 261852Z AUTO 11005KT 26/23 A2983 RMK AO1 PRESFR SLP087
T02610228





000
SAUS43 KEAX 261753
MTRCDJ
METAR KCDJ 261752Z AUTO 21005KT 27/22 A2985 RMK AO1 SLP093 T02720217
10300 20239 53010





000
SAUS43 KEAX 261653
MTRCDJ
METAR KCDJ 261652Z AUTO 20008G16KT 30/23 A2984 RMK AO1 SLP089
T03000228





000
SAUS43 KEAX 261553
MTRCDJ
METAR KCDJ 261552Z AUTO 19009KT 28/23 A2983 RMK AO1 SLP083 T02830228





000
SAUS43 KEAX 261453
MTRCDJ
METAR KCDJ 261452Z AUTO 19007KT 28/23 A2982 RMK AO1 SLP081 T02780228
58002





000
SAUS43 KEAX 261353
MTRCDJ
METAR KCDJ 261352Z AUTO 20008KT 27/23 A2983 RMK AO1 SLP086 T02720228





000
SAUS43 KEAX 261253
MTRCDJ
METAR KCDJ 261252Z AUTO 19009KT 27/23 A2982 RMK AO1 SLP082 T02670228





000
SAUS43 KEAX 261153
MTRCDJ
METAR KCDJ 261152Z AUTO 19005KT 24/22 A2983 RMK AO1 SLP084 T02390222
10278 20228 51004





    US Dept of Commerce
    National Oceanic and Atmospheric Administration
    National Weather Service
    1325 East West Highway
    Silver Spring, MD 20910
    Page Author: NWS Internet Services Team
Disclaimer
Information Quality
Credits
Glossary
Privacy Policy
Freedom of Information Act (FOIA)
About Us
Career Opportunities